sensor_id;sensor_type;location;lat;lon;timestamp;P1;durP1;ratioP1;P2;durP2;ratioP2
44102;SDS011;29769;42.178;24.742;2023-03-23T00:00:30;30.27;;;19.70;;
44102;SDS011;29769;42.178;24.742;2023-03-23T00:03:16;38.92;;;21.75;;
44102;SDS011;29769;42.178;24.742;2023-03-23T00:06:02;34.80;;;21.30;;
44102;SDS011;29769;42.178;24.742;2023-03-23T00:08:49;33.67;;;21.00;;
44102;SDS011;29769;42.178;24.742;2023-03-23T00:11:41;34.30;;;20.60;;
44102;SDS011;29769;42.178;24.742;2023-03-23T00:14:26;36.55;;;21.83;;
44102;SDS011;29769;42.178;24.742;2023-03-23T00:17:11;37.28;;;21.33;;
44102;SDS011;29769;42.178;24.742;2023-03-23T00:19:59;34.78;;;20.13;;
44102;SDS011;29769;42.178;24.742;2023-03-23T00:22:45;32.83;;;20.52;;
44102;SDS011;29769;42.178;24.742;2023-03-23T00:25:30;37.92;;;20.17;;
44102;SDS011;29769;42.178;24.742;2023-03-23T00:28:15;34.80;;;19.05;;
44102;SDS011;29769;42.178;24.742;2023-03-23T00:31:03;35.22;;;18.80;;
44102;SDS011;29769;42.178;24.742;2023-03-23T00:33:53;36.33;;;19.83;;
44102;SDS011;29769;42.178;24.742;2023-03-23T00:36:38;32.75;;;19.35;;
44102;SDS011;29769;42.178;24.742;2023-03-23T00:39:28;38.70;;;20.23;;
44102;SDS011;29769;42.178;24.742;2023-03-23T00:42:13;36.10;;;20.00;;
44102;SDS011;29769;42.178;24.742;2023-03-23T00:44:59;35.50;;;19.35;;
44102;SDS011;29769;42.178;24.742;2023-03-23T00:47:45;34.78;;;20.23;;
44102;SDS011;29769;42.178;24.742;2023-03-23T00:50:31;33.50;;;19.65;;
44102;SDS011;29769;42.178;24.742;2023-03-23T00:53:16;35.28;;;20.10;;
44102;SDS011;29769;42.178;24.742;2023-03-23T00:56:02;34.03;;;20.05;;
44102;SDS011;29769;42.178;24.742;2023-03-23T00:58:47;32.22;;;19.95;;
44102;SDS011;29769;42.178;24.742;2023-03-23T01:04:17;36.33;;;21.37;;
44102;SDS011;29769;42.178;24.742;2023-03-23T01:09:48;35.67;;;20.10;;
44102;SDS011;29769;42.178;24.742;2023-03-23T01:12:33;35.83;;;19.25;;
44102;SDS011;29769;42.178;24.742;2023-03-23T01:15:19;37.78;;;21.20;;
44102;SDS011;29769;42.178;24.742;2023-03-23T01:18:04;35.67;;;20.52;;
44102;SDS011;29769;42.178;24.742;2023-03-23T01:20:50;39.03;;;21.55;;
44102;SDS011;29769;42.178;24.742;2023-03-23T01:23:35;43.33;;;22.23;;
44102;SDS011;29769;42.178;24.742;2023-03-23T01:26:21;38.95;;;22.10;;
44102;SDS011;29769;42.178;24.742;2023-03-23T01:29:09;43.53;;;21.95;;
44102;SDS011;29769;42.178;24.742;2023-03-23T01:31:54;42.28;;;21.65;;
44102;SDS011;29769;42.178;24.742;2023-03-23T01:37:24;48.35;;;23.42;;
44102;SDS011;29769;42.178;24.742;2023-03-23T01:40:12;46.83;;;24.40;;
44102;SDS011;29769;42.178;24.742;2023-03-23T01:42:57;40.75;;;22.83;;
44102;SDS011;29769;42.178;24.742;2023-03-23T01:45:43;40.28;;;22.15;;
44102;SDS011;29769;42.178;24.742;2023-03-23T01:48:28;44.08;;;23.65;;
44102;SDS011;29769;42.178;24.742;2023-03-23T01:51:17;42.88;;;22.63;;
44102;SDS011;29769;42.178;24.742;2023-03-23T01:54:09;43.67;;;22.17;;
44102;SDS011;29769;42.178;24.742;2023-03-23T01:57:04;40.20;;;21.75;;
44102;SDS011;29769;42.178;24.742;2023-03-23T01:59:55;42.80;;;22.52;;
44102;SDS011;29769;42.178;24.742;2023-03-23T02:02:59;46.85;;;23.58;;
44102;SDS011;29769;42.178;24.742;2023-03-23T02:05:45;42.78;;;23.20;;
44102;SDS011;29769;42.178;24.742;2023-03-23T02:08:40;48.25;;;24.08;;
44102;SDS011;29769;42.178;24.742;2023-03-23T02:11:28;46.85;;;24.23;;
44102;SDS011;29769;42.178;24.742;2023-03-23T02:14:12;46.60;;;21.80;;
44102;SDS011;29769;42.178;24.742;2023-03-23T02:17:15;278.50;;;27.10;;
44102;SDS011;29769;42.178;24.742;2023-03-23T02:26:23;253.65;;;28.67;;
44102;SDS011;29769;42.178;24.742;2023-03-23T02:29:18;368.10;;;31.92;;
44102;SDS011;29769;42.178;24.742;2023-03-23T02:35:25;177.93;;;31.90;;
44102;SDS011;29769;42.178;24.742;2023-03-23T02:38:16;122.50;;;34.08;;
44102;SDS011;29769;42.178;24.742;2023-03-23T02:41:05;72.18;;;31.23;;
44102;SDS011;29769;42.178;24.742;2023-03-23T02:43:50;98.20;;;32.15;;
44102;SDS011;29769;42.178;24.742;2023-03-23T02:46:36;343.67;;;36.53;;
44102;SDS011;29769;42.178;24.742;2023-03-23T02:49:22;321.63;;;36.47;;
44102;SDS011;29769;42.178;24.742;2023-03-23T02:52:14;384.02;;;41.95;;
44102;SDS011;29769;42.178;24.742;2023-03-23T02:55:07;318.13;;;36.53;;
44102;SDS011;29769;42.178;24.742;2023-03-23T02:57:56;220.50;;;32.55;;
44102;SDS011;29769;42.178;24.742;2023-03-23T03:00:41;214.82;;;31.05;;
44102;SDS011;29769;42.178;24.742;2023-03-23T03:03:28;157.25;;;32.28;;
44102;SDS011;29769;42.178;24.742;2023-03-23T03:06:21;280.92;;;33.03;;
44102;SDS011;29769;42.178;24.742;2023-03-23T03:09:18;208.20;;;33.60;;
44102;SDS011;29769;42.178;24.742;2023-03-23T03:12:12;184.00;;;35.67;;
44102;SDS011;29769;42.178;24.742;2023-03-23T03:15:17;116.32;;;35.63;;
44102;SDS011;29769;42.178;24.742;2023-03-23T03:18:26;90.85;;;34.80;;
44102;SDS011;29769;42.178;24.742;2023-03-23T03:21:15;80.75;;;34.75;;
44102;SDS011;29769;42.178;24.742;2023-03-23T03:24:11;78.85;;;34.78;;
44102;SDS011;29769;42.178;24.742;2023-03-23T03:27:00;72.72;;;32.53;;
44102;SDS011;29769;42.178;24.742;2023-03-23T03:30:06;82.93;;;34.88;;
44102;SDS011;29769;42.178;24.742;2023-03-23T03:32:58;72.18;;;31.55;;
44102;SDS011;29769;42.178;24.742;2023-03-23T03:35:45;77.80;;;32.78;;
44102;SDS011;29769;42.178;24.742;2023-03-23T03:38:40;71.78;;;31.42;;
44102;SDS011;29769;42.178;24.742;2023-03-23T03:41:26;70.28;;;31.08;;
44102;SDS011;29769;42.178;24.742;2023-03-23T03:44:10;68.10;;;31.10;;
44102;SDS011;29769;42.178;24.742;2023-03-23T03:46:55;60.67;;;28.88;;
44102;SDS011;29769;42.178;24.742;2023-03-23T03:49:40;67.70;;;30.05;;
44102;SDS011;29769;42.178;24.742;2023-03-23T03:52:25;57.70;;;27.23;;
44102;SDS011;29769;42.178;24.742;2023-03-23T03:55:12;62.05;;;29.05;;
44102;SDS011;29769;42.178;24.742;2023-03-23T03:57:59;61.38;;;28.83;;
44102;SDS011;29769;42.178;24.742;2023-03-23T04:01:03;53.25;;;25.45;;
44102;SDS011;29769;42.178;24.742;2023-03-23T04:03:53;60.88;;;27.35;;
44102;SDS011;29769;42.178;24.742;2023-03-23T04:06:47;55.28;;;27.05;;
44102;SDS011;29769;42.178;24.742;2023-03-23T04:09:33;50.75;;;25.25;;
44102;SDS011;29769;42.178;24.742;2023-03-23T04:12:18;48.90;;;24.52;;
44102;SDS011;29769;42.178;24.742;2023-03-23T04:15:15;52.28;;;24.95;;
44102;SDS011;29769;42.178;24.742;2023-03-23T04:18:01;59.95;;;25.50;;
44102;SDS011;29769;42.178;24.742;2023-03-23T04:20:47;42.10;;;22.65;;
44102;SDS011;29769;42.178;24.742;2023-03-23T04:23:36;45.67;;;23.88;;
44102;SDS011;29769;42.178;24.742;2023-03-23T04:26:21;47.78;;;22.48;;
44102;SDS011;29769;42.178;24.742;2023-03-23T04:29:08;51.90;;;23.20;;
44102;SDS011;29769;42.178;24.742;2023-03-23T04:31:53;46.70;;;21.75;;
44102;SDS011;29769;42.178;24.742;2023-03-23T04:34:53;47.78;;;22.02;;
44102;SDS011;29769;42.178;24.742;2023-03-23T04:37:43;47.90;;;21.45;;
44102;SDS011;29769;42.178;24.742;2023-03-23T04:40:32;52.38;;;23.98;;
44102;SDS011;29769;42.178;24.742;2023-03-23T04:43:32;50.00;;;22.55;;
44102;SDS011;29769;42.178;24.742;2023-03-23T04:46:35;54.97;;;22.23;;
44102;SDS011;29769;42.178;24.742;2023-03-23T04:49:26;64.07;;;23.45;;
44102;SDS011;29769;42.178;24.742;2023-03-23T04:52:21;70.82;;;24.90;;
44102;SDS011;29769;42.178;24.742;2023-03-23T04:55:11;52.72;;;23.50;;
44102;SDS011;29769;42.178;24.742;2023-03-23T04:57:59;57.90;;;25.15;;
44102;SDS011;29769;42.178;24.742;2023-03-23T05:01:03;50.03;;;23.23;;
44102;SDS011;29769;42.178;24.742;2023-03-23T05:03:50;62.22;;;25.05;;
44102;SDS011;29769;42.178;24.742;2023-03-23T05:06:35;42.00;;;21.90;;
44102;SDS011;29769;42.178;24.742;2023-03-23T05:09:28;49.42;;;28.75;;
44102;SDS011;29769;42.178;24.742;2023-03-23T05:12:14;63.40;;;28.65;;
44102;SDS011;29769;42.178;24.742;2023-03-23T05:15:22;53.33;;;24.75;;
44102;SDS011;29769;42.178;24.742;2023-03-23T05:18:07;71.25;;;26.17;;
44102;SDS011;29769;42.178;24.742;2023-03-23T05:20:54;62.45;;;25.05;;
44102;SDS011;29769;42.178;24.742;2023-03-23T05:23:41;51.78;;;22.95;;
44102;SDS011;29769;42.178;24.742;2023-03-23T05:26:34;44.83;;;21.70;;
44102;SDS011;29769;42.178;24.742;2023-03-23T05:29:26;57.85;;;22.13;;
44102;SDS011;29769;42.178;24.742;2023-03-23T05:32:16;67.82;;;22.90;;
44102;SDS011;29769;42.178;24.742;2023-03-23T05:35:03;66.13;;;23.00;;
44102;SDS011;29769;42.178;24.742;2023-03-23T05:37:49;69.05;;;23.13;;
44102;SDS011;29769;42.178;24.742;2023-03-23T05:40:34;83.70;;;25.88;;
44102;SDS011;29769;42.178;24.742;2023-03-23T05:43:30;77.47;;;23.25;;
44102;SDS011;29769;42.178;24.742;2023-03-23T05:46:50;94.90;;;24.50;;
44102;SDS011;29769;42.178;24.742;2023-03-23T05:49:35;70.78;;;24.08;;
44102;SDS011;29769;42.178;24.742;2023-03-23T05:52:23;94.85;;;24.80;;
44102;SDS011;29769;42.178;24.742;2023-03-23T05:55:10;87.25;;;23.60;;
44102;SDS011;29769;42.178;24.742;2023-03-23T05:57:58;76.40;;;20.90;;
44102;SDS011;29769;42.178;24.742;2023-03-23T06:00:48;60.35;;;22.30;;
44102;SDS011;29769;42.178;24.742;2023-03-23T06:03:42;47.40;;;21.45;;
44102;SDS011;29769;42.178;24.742;2023-03-23T06:06:37;67.85;;;26.52;;
44102;SDS011;29769;42.178;24.742;2023-03-23T06:09:26;62.90;;;21.02;;
44102;SDS011;29769;42.178;24.742;2023-03-23T06:12:36;35.58;;;16.92;;
44102;SDS011;29769;42.178;24.742;2023-03-23T06:15:22;36.60;;;16.73;;
44102;SDS011;29769;42.178;24.742;2023-03-23T06:21:23;63.67;;;19.73;;
44102;SDS011;29769;42.178;24.742;2023-03-23T06:24:14;68.60;;;20.98;;
44102;SDS011;29769;42.178;24.742;2023-03-23T06:29:44;89.85;;;22.23;;
44102;SDS011;29769;42.178;24.742;2023-03-23T06:35:16;36.53;;;19.15;;
44102;SDS011;29769;42.178;24.742;2023-03-23T06:38:23;26.25;;;15.65;;
44102;SDS011;29769;42.178;24.742;2023-03-23T06:41:11;29.08;;;17.02;;
44102;SDS011;29769;42.178;24.742;2023-03-23T06:43:57;26.58;;;16.35;;
44102;SDS011;29769;42.178;24.742;2023-03-23T06:46:46;26.88;;;16.95;;
44102;SDS011;29769;42.178;24.742;2023-03-23T06:49:54;24.38;;;15.75;;
44102;SDS011;29769;42.178;24.742;2023-03-23T06:52:46;29.27;;;15.07;;
44102;SDS011;29769;42.178;24.742;2023-03-23T06:55:33;19.63;;;14.25;;
44102;SDS011;29769;42.178;24.742;2023-03-23T07:01:02;26.30;;;13.55;;
44102;SDS011;29769;42.178;24.742;2023-03-23T07:03:51;19.70;;;12.63;;
44102;SDS011;29769;42.178;24.742;2023-03-23T07:06:43;20.65;;;12.82;;
44102;SDS011;29769;42.178;24.742;2023-03-23T07:09:28;21.55;;;13.77;;
44102;SDS011;29769;42.178;24.742;2023-03-23T07:12:13;17.58;;;12.68;;
44102;SDS011;29769;42.178;24.742;2023-03-23T07:15:04;42.10;;;15.27;;
44102;SDS011;29769;42.178;24.742;2023-03-23T07:17:50;20.77;;;12.77;;
44102;SDS011;29769;42.178;24.742;2023-03-23T07:20:42;35.72;;;13.63;;
44102;SDS011;29769;42.178;24.742;2023-03-23T07:23:28;18.40;;;13.07;;
44102;SDS011;29769;42.178;24.742;2023-03-23T07:26:25;27.48;;;16.15;;
44102;SDS011;29769;42.178;24.742;2023-03-23T07:29:12;35.42;;;19.08;;
44102;SDS011;29769;42.178;24.742;2023-03-23T07:32:02;19.58;;;13.77;;
44102;SDS011;29769;42.178;24.742;2023-03-23T07:34:47;20.70;;;14.38;;
44102;SDS011;29769;42.178;24.742;2023-03-23T07:37:49;17.98;;;13.18;;
44102;SDS011;29769;42.178;24.742;2023-03-23T07:40:35;17.60;;;12.70;;
44102;SDS011;29769;42.178;24.742;2023-03-23T07:43:29;20.63;;;12.48;;
44102;SDS011;29769;42.178;24.742;2023-03-23T07:46:14;20.55;;;12.48;;
44102;SDS011;29769;42.178;24.742;2023-03-23T07:49:08;116.60;;;20.55;;
44102;SDS011;29769;42.178;24.742;2023-03-23T07:52:00;17.52;;;11.25;;
44102;SDS011;29769;42.178;24.742;2023-03-23T07:54:45;22.65;;;10.60;;
44102;SDS011;29769;42.178;24.742;2023-03-23T07:57:46;23.05;;;11.82;;
44102;SDS011;29769;42.178;24.742;2023-03-23T08:00:33;53.17;;;13.50;;
44102;SDS011;29769;42.178;24.742;2023-03-23T08:03:22;13.38;;;9.48;;
44102;SDS011;29769;42.178;24.742;2023-03-23T08:06:32;13.23;;;9.85;;
44102;SDS011;29769;42.178;24.742;2023-03-23T08:09:34;19.23;;;9.93;;
44102;SDS011;29769;42.178;24.742;2023-03-23T08:12:42;19.05;;;9.32;;
44102;SDS011;29769;42.178;24.742;2023-03-23T08:15:39;10.07;;;8.30;;
44102;SDS011;29769;42.178;24.742;2023-03-23T08:18:46;27.55;;;9.75;;
44102;SDS011;29769;42.178;24.742;2023-03-23T08:21:31;13.55;;;9.90;;
44102;SDS011;29769;42.178;24.742;2023-03-23T08:24:36;14.02;;;8.80;;
44102;SDS011;29769;42.178;24.742;2023-03-23T08:27:33;15.48;;;8.38;;
44102;SDS011;29769;42.178;24.742;2023-03-23T08:30:34;10.50;;;7.88;;
44102;SDS011;29769;42.178;24.742;2023-03-23T08:33:38;13.50;;;8.55;;
44102;SDS011;29769;42.178;24.742;2023-03-23T08:36:47;15.90;;;9.38;;
44102;SDS011;29769;42.178;24.742;2023-03-23T08:39:37;12.02;;;8.90;;
44102;SDS011;29769;42.178;24.742;2023-03-23T08:42:49;11.70;;;8.60;;
44102;SDS011;29769;42.178;24.742;2023-03-23T08:45:54;11.35;;;7.82;;
44102;SDS011;29769;42.178;24.742;2023-03-23T08:48:59;19.20;;;7.97;;
44102;SDS011;29769;42.178;24.742;2023-03-23T08:51:57;12.98;;;8.45;;
44102;SDS011;29769;42.178;24.742;2023-03-23T08:54:55;15.45;;;8.32;;
44102;SDS011;29769;42.178;24.742;2023-03-23T08:58:03;13.93;;;8.32;;
44102;SDS011;29769;42.178;24.742;2023-03-23T09:01:07;31.23;;;9.85;;
44102;SDS011;29769;42.178;24.742;2023-03-23T09:04:02;12.75;;;8.30;;
44102;SDS011;29769;42.178;24.742;2023-03-23T09:07:14;34.78;;;10.50;;
44102;SDS011;29769;42.178;24.742;2023-03-23T09:09:59;11.73;;;8.60;;
44102;SDS011;29769;42.178;24.742;2023-03-23T09:12:45;12.65;;;7.82;;
44102;SDS011;29769;42.178;24.742;2023-03-23T09:15:32;13.15;;;7.95;;
44102;SDS011;29769;42.178;24.742;2023-03-23T09:18:17;14.80;;;8.15;;
44102;SDS011;29769;42.178;24.742;2023-03-23T09:21:03;12.77;;;8.30;;
44102;SDS011;29769;42.178;24.742;2023-03-23T09:23:48;18.45;;;9.35;;
44102;SDS011;29769;42.178;24.742;2023-03-23T09:26:33;10.95;;;8.32;;
44102;SDS011;29769;42.178;24.742;2023-03-23T09:29:18;13.45;;;8.43;;
44102;SDS011;29769;42.178;24.742;2023-03-23T09:32:03;19.48;;;9.05;;
44102;SDS011;29769;42.178;24.742;2023-03-23T09:34:48;8.75;;;7.47;;
44102;SDS011;29769;42.178;24.742;2023-03-23T09:37:33;13.35;;;7.97;;
44102;SDS011;29769;42.178;24.742;2023-03-23T09:40:23;22.45;;;8.40;;
44102;SDS011;29769;42.178;24.742;2023-03-23T09:43:28;23.90;;;7.50;;
44102;SDS011;29769;42.178;24.742;2023-03-23T09:52:35;7.35;;;6.53;;
44102;SDS011;29769;42.178;24.742;2023-03-23T09:55:22;15.82;;;7.28;;
44102;SDS011;29769;42.178;24.742;2023-03-23T10:01:17;8.57;;;5.43;;
44102;SDS011;29769;42.178;24.742;2023-03-23T10:04:28;9.52;;;5.80;;
44102;SDS011;29769;42.178;24.742;2023-03-23T10:07:21;11.85;;;5.38;;
44102;SDS011;29769;42.178;24.742;2023-03-23T10:10:08;16.17;;;5.32;;
44102;SDS011;29769;42.178;24.742;2023-03-23T10:13:41;8.55;;;5.85;;
44102;SDS011;29769;42.178;24.742;2023-03-23T10:16:19;5.78;;;5.13;;
44102;SDS011;29769;42.178;24.742;2023-03-23T10:19:12;5.70;;;5.18;;
44102;SDS011;29769;42.178;24.742;2023-03-23T10:22:11;12.57;;;4.95;;
44102;SDS011;29769;42.178;24.742;2023-03-23T10:28:01;5.28;;;3.63;;
44102;SDS011;29769;42.178;24.742;2023-03-23T10:30:57;5.85;;;3.90;;
44102;SDS011;29769;42.178;24.742;2023-03-23T10:33:44;3.45;;;3.25;;
44102;SDS011;29769;42.178;24.742;2023-03-23T10:36:34;3.97;;;3.67;;
44102;SDS011;29769;42.178;24.742;2023-03-23T10:39:23;4.43;;;4.03;;
44102;SDS011;29769;42.178;24.742;2023-03-23T10:42:10;7.88;;;3.70;;
44102;SDS011;29769;42.178;24.742;2023-03-23T10:44:56;5.72;;;3.50;;
44102;SDS011;29769;42.178;24.742;2023-03-23T10:47:44;4.38;;;3.72;;
44102;SDS011;29769;42.178;24.742;2023-03-23T10:50:34;10.38;;;4.07;;
44102;SDS011;29769;42.178;24.742;2023-03-23T10:53:26;3.17;;;2.85;;
44102;SDS011;29769;42.178;24.742;2023-03-23T10:56:22;3.47;;;3.28;;
44102;SDS011;29769;42.178;24.742;2023-03-23T10:59:25;5.50;;;3.33;;
44102;SDS011;29769;42.178;24.742;2023-03-23T11:02:17;10.80;;;3.50;;
44102;SDS011;29769;42.178;24.742;2023-03-23T11:05:07;6.55;;;3.60;;
44102;SDS011;29769;42.178;24.742;2023-03-23T11:07:59;30.05;;;4.95;;
44102;SDS011;29769;42.178;24.742;2023-03-23T11:10:53;9.07;;;4.00;;
44102;SDS011;29769;42.178;24.742;2023-03-23T11:14:01;12.32;;;3.63;;
44102;SDS011;29769;42.178;24.742;2023-03-23T11:16:59;11.45;;;3.83;;
44102;SDS011;29769;42.178;24.742;2023-03-23T11:19:45;15.88;;;5.20;;
44102;SDS011;29769;42.178;24.742;2023-03-23T11:22:34;18.38;;;4.43;;
44102;SDS011;29769;42.178;24.742;2023-03-23T11:25:20;19.08;;;4.82;;
44102;SDS011;29769;42.178;24.742;2023-03-23T11:28:07;4.72;;;3.65;;
44102;SDS011;29769;42.178;24.742;2023-03-23T11:30:54;4.40;;;3.90;;
44102;SDS011;29769;42.178;24.742;2023-03-23T11:37:09;10.68;;;4.15;;
44102;SDS011;29769;42.178;24.742;2023-03-23T11:40:01;13.15;;;4.15;;
44102;SDS011;29769;42.178;24.742;2023-03-23T11:45:53;4.88;;;4.38;;
44102;SDS011;29769;42.178;24.742;2023-03-23T11:57:22;14.35;;;7.07;;
44102;SDS011;29769;42.178;24.742;2023-03-23T12:00:18;17.30;;;7.05;;
44102;SDS011;29769;42.178;24.742;2023-03-23T12:03:07;9.18;;;7.07;;
44102;SDS011;29769;42.178;24.742;2023-03-23T12:06:11;9.75;;;6.90;;
44102;SDS011;29769;42.178;24.742;2023-03-23T12:17:45;7.95;;;6.70;;
44102;SDS011;29769;42.178;24.742;2023-03-23T12:26:41;15.40;;;6.65;;
44102;SDS011;29769;42.178;24.742;2023-03-23T12:29:55;32.15;;;7.65;;
44102;SDS011;29769;42.178;24.742;2023-03-23T12:46:01;5.82;;;5.28;;
44102;SDS011;29769;42.178;24.742;2023-03-23T12:52:04;5.10;;;4.50;;
44102;SDS011;29769;42.178;24.742;2023-03-23T12:58:05;5.72;;;4.32;;
44102;SDS011;29769;42.178;24.742;2023-03-23T13:01:06;4.60;;;3.83;;
44102;SDS011;29769;42.178;24.742;2023-03-23T13:04:00;3.80;;;3.50;;
44102;SDS011;29769;42.178;24.742;2023-03-23T13:06:51;4.32;;;3.92;;
44102;SDS011;29769;42.178;24.742;2023-03-23T13:12:32;7.18;;;4.05;;
44102;SDS011;29769;42.178;24.742;2023-03-23T13:15:25;7.15;;;3.67;;
44102;SDS011;29769;42.178;24.742;2023-03-23T13:21:37;7.03;;;4.10;;
44102;SDS011;29769;42.178;24.742;2023-03-23T13:27:15;4.97;;;3.58;;
44102;SDS011;29769;42.178;24.742;2023-03-23T13:30:02;4.90;;;3.30;;
44102;SDS011;29769;42.178;24.742;2023-03-23T13:32:48;5.18;;;3.47;;
44102;SDS011;29769;42.178;24.742;2023-03-23T13:35:34;8.80;;;3.53;;
44102;SDS011;29769;42.178;24.742;2023-03-23T13:38:24;4.38;;;3.22;;
44102;SDS011;29769;42.178;24.742;2023-03-23T13:41:13;3.35;;;2.60;;
44102;SDS011;29769;42.178;24.742;2023-03-23T13:44:27;7.80;;;3.25;;
44102;SDS011;29769;42.178;24.742;2023-03-23T13:47:26;3.33;;;2.78;;
44102;SDS011;29769;42.178;24.742;2023-03-23T13:53:13;3.38;;;3.08;;
44102;SDS011;29769;42.178;24.742;2023-03-23T13:58:52;3.22;;;2.92;;
44102;SDS011;29769;42.178;24.742;2023-03-23T14:01:49;7.75;;;3.20;;
44102;SDS011;29769;42.178;24.742;2023-03-23T14:04:33;3.83;;;3.00;;
44102;SDS011;29769;42.178;24.742;2023-03-23T14:07:19;15.20;;;3.75;;
44102;SDS011;29769;42.178;24.742;2023-03-23T14:10:05;3.38;;;3.08;;
44102;SDS011;29769;42.178;24.742;2023-03-23T14:12:52;3.55;;;3.25;;
44102;SDS011;29769;42.178;24.742;2023-03-23T14:15:41;3.50;;;3.20;;
44102;SDS011;29769;42.178;24.742;2023-03-23T14:18:31;3.50;;;3.20;;
44102;SDS011;29769;42.178;24.742;2023-03-23T14:21:31;6.80;;;3.42;;
44102;SDS011;29769;42.178;24.742;2023-03-23T14:24:20;3.53;;;3.22;;
44102;SDS011;29769;42.178;24.742;2023-03-23T14:29:59;3.63;;;3.20;;
44102;SDS011;29769;42.178;24.742;2023-03-23T14:32:49;3.83;;;3.20;;
44102;SDS011;29769;42.178;24.742;2023-03-23T14:35:37;4.53;;;3.38;;
44102;SDS011;29769;42.178;24.742;2023-03-23T14:38:25;7.70;;;4.82;;
44102;SDS011;29769;42.178;24.742;2023-03-23T14:41:16;3.85;;;3.55;;
44102;SDS011;29769;42.178;24.742;2023-03-23T14:44:01;4.55;;;3.50;;
44102;SDS011;29769;42.178;24.742;2023-03-23T14:46:48;5.38;;;4.75;;
44102;SDS011;29769;42.178;24.742;2023-03-23T14:49:37;4.20;;;3.45;;
44102;SDS011;29769;42.178;24.742;2023-03-23T14:52:27;4.68;;;4.10;;
44102;SDS011;29769;42.178;24.742;2023-03-23T14:55:17;5.43;;;4.05;;
44102;SDS011;29769;42.178;24.742;2023-03-23T14:58:07;4.80;;;3.80;;
44102;SDS011;29769;42.178;24.742;2023-03-23T15:04:01;4.15;;;3.75;;
44102;SDS011;29769;42.178;24.742;2023-03-23T15:06:51;7.53;;;3.90;;
44102;SDS011;29769;42.178;24.742;2023-03-23T15:09:40;4.35;;;3.90;;
44102;SDS011;29769;42.178;24.742;2023-03-23T15:12:28;4.25;;;3.83;;
44102;SDS011;29769;42.178;24.742;2023-03-23T15:15:22;5.25;;;4.05;;
44102;SDS011;29769;42.178;24.742;2023-03-23T15:18:25;11.27;;;8.25;;
44102;SDS011;29769;42.178;24.742;2023-03-23T15:21:28;12.85;;;8.27;;
44102;SDS011;29769;42.178;24.742;2023-03-23T15:24:37;7.20;;;4.13;;
44102;SDS011;29769;42.178;24.742;2023-03-23T15:33:09;8.15;;;5.55;;
44102;SDS011;29769;42.178;24.742;2023-03-23T15:35:55;9.13;;;5.40;;
44102;SDS011;29769;42.178;24.742;2023-03-23T15:38:43;6.80;;;5.70;;
44102;SDS011;29769;42.178;24.742;2023-03-23T15:41:30;5.38;;;3.53;;
44102;SDS011;29769;42.178;24.742;2023-03-23T15:44:23;6.97;;;5.15;;
44102;SDS011;29769;42.178;24.742;2023-03-23T15:47:15;7.15;;;4.30;;
44102;SDS011;29769;42.178;24.742;2023-03-23T15:50:48;6.43;;;4.28;;
44102;SDS011;29769;42.178;24.742;2023-03-23T15:53:15;9.98;;;4.80;;
44102;SDS011;29769;42.178;24.742;2023-03-23T15:56:13;5.30;;;4.30;;
44102;SDS011;29769;42.178;24.742;2023-03-23T15:58:58;5.75;;;4.03;;
44102;SDS011;29769;42.178;24.742;2023-03-23T16:01:44;10.95;;;6.22;;
44102;SDS011;29769;42.178;24.742;2023-03-23T16:04:29;7.28;;;5.13;;
44102;SDS011;29769;42.178;24.742;2023-03-23T16:07:16;7.93;;;4.97;;
44102;SDS011;29769;42.178;24.742;2023-03-23T16:10:06;4.00;;;3.22;;
44102;SDS011;29769;42.178;24.742;2023-03-23T16:12:58;6.90;;;5.15;;
44102;SDS011;29769;42.178;24.742;2023-03-23T16:15:43;6.93;;;5.32;;
44102;SDS011;29769;42.178;24.742;2023-03-23T16:18:29;7.65;;;5.72;;
44102;SDS011;29769;42.178;24.742;2023-03-23T16:23:59;8.77;;;5.07;;
44102;SDS011;29769;42.178;24.742;2023-03-23T16:26:44;7.82;;;5.20;;
44102;SDS011;29769;42.178;24.742;2023-03-23T16:29:29;11.50;;;5.95;;
44102;SDS011;29769;42.178;24.742;2023-03-23T16:34:59;10.15;;;6.47;;
44102;SDS011;29769;42.178;24.742;2023-03-23T16:37:48;8.52;;;6.28;;
44102;SDS011;29769;42.178;24.742;2023-03-23T16:40:38;9.25;;;6.60;;
44102;SDS011;29769;42.178;24.742;2023-03-23T16:43:23;20.33;;;8.65;;
44102;SDS011;29769;42.178;24.742;2023-03-23T16:46:08;11.80;;;7.53;;
44102;SDS011;29769;42.178;24.742;2023-03-23T16:48:57;11.77;;;8.35;;
44102;SDS011;29769;42.178;24.742;2023-03-23T16:51:42;18.77;;;9.60;;
44102;SDS011;29769;42.178;24.742;2023-03-23T16:54:27;16.48;;;10.15;;
44102;SDS011;29769;42.178;24.742;2023-03-23T16:59:56;9.13;;;6.60;;
44102;SDS011;29769;42.178;24.742;2023-03-23T17:02:42;11.55;;;7.32;;
44102;SDS011;29769;42.178;24.742;2023-03-23T17:05:28;10.68;;;6.30;;
44102;SDS011;29769;42.178;24.742;2023-03-23T17:08:13;9.50;;;7.18;;
44102;SDS011;29769;42.178;24.742;2023-03-23T17:10:58;11.40;;;7.57;;
44102;SDS011;29769;42.178;24.742;2023-03-23T17:13:43;11.02;;;7.78;;
44102;SDS011;29769;42.178;24.742;2023-03-23T17:19:13;17.00;;;8.02;;
44102;SDS011;29769;42.178;24.742;2023-03-23T17:21:58;12.77;;;8.57;;
44102;SDS011;29769;42.178;24.742;2023-03-23T17:30:14;16.38;;;10.60;;
44102;SDS011;29769;42.178;24.742;2023-03-23T17:35:44;17.35;;;8.98;;
44102;SDS011;29769;42.178;24.742;2023-03-23T17:38:29;10.75;;;8.88;;
44102;SDS011;29769;42.178;24.742;2023-03-23T17:43:59;10.52;;;8.02;;
44102;SDS011;29769;42.178;24.742;2023-03-23T17:46:45;12.52;;;9.70;;
44102;SDS011;29769;42.178;24.742;2023-03-23T17:49:30;13.30;;;9.68;;
44102;SDS011;29769;42.178;24.742;2023-03-23T17:52:15;12.90;;;9.05;;
44102;SDS011;29769;42.178;24.742;2023-03-23T17:55:00;14.82;;;9.60;;
44102;SDS011;29769;42.178;24.742;2023-03-23T17:57:45;11.27;;;9.20;;
44102;SDS011;29769;42.178;24.742;2023-03-23T18:00:30;12.00;;;8.65;;
44102;SDS011;29769;42.178;24.742;2023-03-23T18:03:15;14.07;;;9.43;;
44102;SDS011;29769;42.178;24.742;2023-03-23T18:08:46;12.98;;;9.48;;
44102;SDS011;29769;42.178;24.742;2023-03-23T18:11:31;15.38;;;11.38;;
44102;SDS011;29769;42.178;24.742;2023-03-23T18:14:16;18.02;;;10.98;;
44102;SDS011;29769;42.178;24.742;2023-03-23T18:17:01;18.00;;;12.38;;
44102;SDS011;29769;42.178;24.742;2023-03-23T18:19:46;21.98;;;13.20;;
44102;SDS011;29769;42.178;24.742;2023-03-23T18:22:31;19.98;;;12.23;;
44102;SDS011;29769;42.178;24.742;2023-03-23T18:25:16;18.67;;;11.85;;
44102;SDS011;29769;42.178;24.742;2023-03-23T18:28:01;16.23;;;11.57;;
44102;SDS011;29769;42.178;24.742;2023-03-23T18:30:47;18.48;;;12.68;;
44102;SDS011;29769;42.178;24.742;2023-03-23T18:33:33;18.42;;;12.05;;
44102;SDS011;29769;42.178;24.742;2023-03-23T18:36:21;17.80;;;11.80;;
44102;SDS011;29769;42.178;24.742;2023-03-23T18:39:07;16.88;;;11.95;;
44102;SDS011;29769;42.178;24.742;2023-03-23T18:41:54;20.83;;;13.20;;
44102;SDS011;29769;42.178;24.742;2023-03-23T18:44:39;23.90;;;12.50;;
44102;SDS011;29769;42.178;24.742;2023-03-23T18:47:24;20.73;;;13.07;;
44102;SDS011;29769;42.178;24.742;2023-03-23T18:50:10;26.02;;;16.42;;
44102;SDS011;29769;42.178;24.742;2023-03-23T18:52:55;25.17;;;14.90;;
44102;SDS011;29769;42.178;24.742;2023-03-23T18:58:26;21.27;;;14.32;;